createdAt,value
2022-10-03T00:02:41.856Z,84.60
2022-10-03T00:05:36.212Z,84.38
2022-10-03T00:08:39.995Z,84.35
2022-10-03T00:11:21.716Z,84.65
2022-10-03T00:13:48.233Z,84.57
2022-10-03T00:16:36.538Z,84.28
2022-10-03T00:19:40.830Z,84.44
2022-10-03T00:22:28.913Z,84.60
2022-10-03T00:25:16.941Z,84.74
2022-10-03T00:27:54.233Z,85.06
2022-10-03T00:30:25.093Z,85.27
2022-10-03T00:33:03.193Z,85.16
2022-10-03T00:35:54.131Z,84.80
2022-10-03T00:38:54.987Z,85.42
2022-10-03T00:41:46.290Z,85.58
2022-10-03T00:44:19.032Z,86.25
2022-10-03T00:47:00.240Z,86.05
2022-10-03T00:49:50.050Z,86.19
2022-10-03T00:52:44.506Z,86.17
2022-10-03T00:55:55.186Z,86.51
2022-10-03T00:58:30.938Z,86.35
2022-10-03T01:01:20.807Z,86.28
2022-10-03T01:04:00.818Z,86.36
2022-10-03T01:06:52.074Z,86.54
2022-10-03T01:09:36.834Z,86.48
2022-10-03T01:12:39.023Z,86.51
2022-10-03T01:15:08.551Z,86.54
2022-10-03T01:17:48.028Z,86.52
2022-10-03T01:20:20.405Z,86.30
2022-10-03T01:23:14.925Z,86.30
2022-10-03T01:26:04.809Z,86.18
2022-10-03T01:28:55.737Z,85.89
2022-10-03T01:31:52.798Z,85.55
2022-10-03T01:34:48.429Z,85.31
2022-10-03T01:37:29.481Z,85.31
2022-10-03T01:40:08.857Z,84.87
2022-10-03T01:42:39.055Z,84.97
2022-10-03T01:45:15.248Z,84.60
2022-10-03T01:47:51.443Z,84.54
2022-10-03T01:50:17.981Z,84.38
2022-10-03T01:53:04.639Z,84.26
2022-10-03T01:55:48.744Z,84.17
2022-10-03T01:58:29.364Z,84.48
2022-10-03T02:01:07.401Z,84.92
2022-10-03T02:03:47.276Z,84.84
2022-10-03T02:06:17.429Z,85.19
2022-10-03T02:08:55.299Z,85.13
2022-10-03T02:12:05.075Z,85.47
2022-10-03T02:14:34.662Z,85.41
2022-10-03T02:17:30.700Z,85.70
2022-10-03T02:20:08.679Z,85.56
2022-10-03T02:22:42.622Z,85.84
2022-10-03T02:25:24.409Z,86.07
2022-10-03T02:28:11.983Z,85.94
2022-10-03T02:31:15.873Z,86.14
2022-10-03T02:33:54.170Z,86.15
2022-10-03T02:36:48.166Z,86.01
2022-10-03T02:39:39.085Z,85.73
2022-10-03T02:42:41.517Z,86.07
2022-10-03T02:45:32.930Z,86.43
2022-10-03T02:48:38.560Z,86.31
2022-10-03T02:51:18.031Z,86.43
2022-10-03T02:53:48.409Z,86.36
2022-10-03T02:56:30.004Z,86.24
2022-10-03T02:59:21.514Z,86.46
2022-10-03T03:01:51.174Z,86.35
2022-10-03T03:04:29.903Z,86.27
2022-10-03T03:07:16.645Z,86.39
2022-10-03T03:10:03.440Z,86.22
2022-10-03T03:13:01.003Z,86.32
2022-10-03T03:16:09.023Z,85.95
2022-10-03T03:18:58.849Z,85.54
2022-10-03T03:21:50.312Z,85.59
2022-10-03T03:24:33.347Z,85.46
2022-10-03T03:27:18.200Z,85.43
2022-10-03T03:30:03.075Z,85.18
2022-10-03T03:32:47.271Z,84.96
2022-10-03T03:35:48.253Z,85.21
2022-10-03T03:38:52.073Z,85.49
2022-10-03T03:41:18.618Z,85.38
2022-10-03T03:43:56.696Z,85.43
2022-10-03T03:46:38.670Z,85.69
2022-10-03T03:49:16.568Z,85.80
2022-10-03T03:51:57.930Z,85.97
2022-10-03T03:54:38.009Z,86.19
2022-10-03T03:57:35.540Z,86.08
2022-10-03T04:00:08.088Z,86.44
2022-10-03T04:02:38.376Z,86.64
2022-10-03T04:05:08.424Z,87.20
2022-10-03T04:07:50.415Z,87.22
2022-10-03T04:10:42.294Z,87.35
2022-10-03T04:13:29.053Z,87.51
2022-10-03T04:16:43.425Z,87.25
2022-10-03T04:19:31.844Z,87.36
2022-10-03T04:22:26.904Z,87.41
2022-10-03T04:25:05.453Z,87.26
2022-10-03T04:28:10.873Z,87.31
2022-10-03T04:30:57.886Z,87.33
2022-10-03T04:33:43.284Z,87.54
2022-10-03T04:36:18.832Z,87.65
2022-10-03T04:39:06.963Z,87.51
2022-10-03T04:41:43.266Z,87.61
2022-10-03T04:44:28.747Z,87.84
2022-10-03T04:47:02.816Z,87.63
2022-10-03T04:49:56.273Z,87.63
2022-10-03T04:52:39.457Z,87.74
2022-10-03T04:55:32.681Z,87.56
2022-10-03T04:58:22.925Z,87.79
2022-10-03T05:01:15.558Z,87.95
2022-10-03T05:03:43.455Z,87.82
2022-10-03T05:06:19.464Z,87.78
2022-10-03T05:09:01.564Z,87.63
2022-10-03T05:11:43.370Z,87.73
2022-10-03T05:14:12.625Z,87.58
2022-10-03T05:16:43.037Z,87.44
2022-10-03T05:19:29.548Z,87.01
2022-10-03T05:22:19.376Z,86.73
2022-10-03T05:25:16.032Z,86.94
2022-10-03T05:27:59.151Z,87.04
2022-10-03T05:30:53.359Z,86.78
2022-10-03T05:33:39.540Z,86.45
2022-10-03T05:36:34.833Z,86.03
2022-10-03T05:39:19.752Z,85.92
2022-10-03T05:42:17.784Z,85.79
2022-10-03T05:44:45.424Z,85.23
2022-10-03T05:47:46.311Z,84.47
2022-10-03T05:50:27.734Z,83.64
2022-10-03T05:53:10.843Z,83.00
2022-10-03T05:55:49.425Z,82.57
2022-10-03T05:58:20.136Z,82.72
2022-10-03T06:01:08.690Z,82.82
2022-10-03T06:03:59.329Z,82.99
2022-10-03T06:06:46.780Z,82.96
2022-10-03T06:09:40.508Z,82.92
2022-10-03T06:12:22.386Z,82.82
2022-10-03T06:15:03.211Z,82.31
2022-10-03T06:17:45.251Z,82.38
2022-10-03T06:20:48.957Z,82.02
2022-10-03T06:23:42.378Z,81.83
2022-10-03T06:26:27.009Z,81.68
2022-10-03T06:29:15.433Z,81.53
2022-10-03T06:32:01.024Z,81.59
2022-10-03T06:34:39.509Z,81.17
2022-10-03T06:37:53.745Z,81.49
2022-10-03T06:40:32.303Z,81.36
2022-10-03T06:43:11.362Z,81.27
2022-10-03T06:45:52.951Z,80.88
2022-10-03T06:48:36.252Z,80.89
2022-10-03T06:51:40.630Z,80.49
2022-10-03T06:54:29.238Z,80.40
2022-10-03T06:57:23.562Z,80.59
2022-10-03T07:00:06.616Z,80.80
2022-10-03T07:03:18.966Z,80.12
2022-10-03T07:05:48.093Z,80.60
2022-10-03T07:08:30.268Z,80.46
2022-10-03T07:11:26.802Z,80.17
2022-10-03T07:14:38.813Z,79.93
2022-10-03T07:17:28.202Z,79.30
2022-10-03T07:20:08.518Z,79.63
2022-10-03T07:22:59.025Z,79.51
2022-10-03T07:25:33.145Z,79.05
2022-10-03T07:28:17.949Z,78.78
2022-10-03T07:30:59.688Z,78.83
2022-10-03T07:33:52.864Z,77.79
2022-10-03T07:37:11.557Z,77.35
2022-10-03T07:39:45.349Z,77.44
2022-10-03T07:42:46.945Z,77.50
2022-10-03T07:45:30.310Z,76.75
2022-10-03T07:48:21.339Z,77.13
2022-10-03T07:51:02.968Z,77.28
2022-10-03T07:54:01.255Z,77.41
2022-10-03T07:56:45.766Z,77.51
2022-10-03T07:59:12.290Z,77.25
2022-10-03T08:01:47.807Z,77.28
2022-10-03T08:04:39.018Z,77.05
2022-10-03T08:07:09.264Z,76.97
2022-10-03T08:09:55.270Z,76.13
2022-10-03T08:12:44.172Z,75.41
2022-10-03T08:15:22.601Z,76.44
2022-10-03T08:17:58.243Z,76.20
2022-10-03T08:20:49.083Z,75.61
2022-10-03T08:23:54.027Z,75.56
2022-10-03T08:26:50.114Z,75.81
2022-10-03T08:29:38.129Z,75.71
2022-10-03T08:32:41.848Z,76.14
2022-10-03T08:35:37.481Z,73.09
2022-10-03T08:38:24.978Z,73.76
2022-10-03T08:41:15.690Z,74.21
2022-10-03T08:44:19.866Z,74.91
2022-10-03T08:46:52.585Z,74.99
2022-10-03T08:49:51.773Z,74.61
2022-10-03T08:52:28.076Z,74.61
2022-10-03T08:55:06.159Z,73.80
2022-10-03T08:57:57.273Z,74.20
2022-10-03T09:00:52.799Z,74.66
2022-10-03T09:03:40.521Z,73.77
2022-10-03T09:06:31.009Z,72.62
2022-10-03T09:09:00.407Z,72.78
2022-10-03T09:11:49.621Z,71.97
2022-10-03T09:14:21.988Z,71.05
2022-10-03T09:17:09.908Z,70.83
2022-10-03T09:20:04.344Z,70.65
2022-10-03T09:22:55.980Z,69.34
2022-10-03T09:25:58.054Z,69.29
2022-10-03T09:28:32.073Z,68.05
2022-10-03T09:31:19.300Z,67.66
2022-10-03T09:33:51.801Z,66.61
2022-10-03T09:36:27.486Z,66.95
2022-10-03T09:39:12.863Z,65.60
2022-10-03T09:42:01.944Z,65.65
2022-10-03T09:44:53.099Z,64.77
2022-10-03T09:47:42.901Z,65.50
2022-10-03T09:50:28.645Z,64.97
2022-10-03T09:53:24.687Z,65.67
2022-10-03T09:56:09.679Z,65.97
2022-10-03T09:58:44.954Z,66.40
2022-10-03T10:01:29.537Z,66.19
2022-10-03T10:04:53.634Z,65.81
2022-10-03T10:07:48.318Z,66.22
2022-10-03T10:10:18.371Z,65.57
2022-10-03T10:12:59.916Z,66.09
2022-10-03T10:15:47.461Z,65.82
2022-10-03T10:18:29.314Z,64.72
2022-10-03T10:21:16.356Z,64.19
2022-10-03T10:24:07.515Z,63.47
2022-10-03T10:27:17.656Z,63.70
2022-10-03T10:30:22.023Z,64.80
2022-10-03T10:33:27.297Z,65.04
2022-10-03T10:35:53.865Z,63.94
2022-10-03T10:38:30.648Z,63.81
2022-10-03T10:41:12.712Z,64.73
2022-10-03T10:43:58.238Z,64.35
2022-10-03T10:46:42.352Z,64.43
2022-10-03T10:49:15.139Z,65.22
2022-10-03T10:52:03.330Z,64.97
2022-10-03T10:54:49.074Z,63.75
2022-10-03T10:57:24.137Z,63.29
2022-10-03T11:00:21.809Z,63.45
2022-10-03T11:03:26.036Z,62.70
2022-10-03T11:06:11.550Z,62.14
2022-10-03T11:08:56.843Z,62.39
2022-10-03T11:12:01.530Z,61.38
2022-10-03T11:14:35.391Z,61.23
2022-10-03T11:17:04.620Z,61.20
2022-10-03T11:19:49.774Z,59.77
2022-10-03T11:22:41.380Z,60.87
2022-10-03T11:25:47.977Z,61.84
2022-10-03T11:28:42.951Z,60.13
2022-10-03T11:31:46.480Z,60.92
2022-10-03T11:34:48.060Z,61.53
2022-10-03T11:37:33.208Z,62.93
2022-10-03T11:40:47.401Z,63.03
2022-10-03T11:43:34.903Z,64.05
2022-10-03T11:46:13.681Z,64.20
2022-10-03T11:48:52.016Z,64.15
2022-10-03T11:51:43.660Z,64.39
2022-10-03T11:54:32.420Z,64.85
2022-10-03T11:57:08.691Z,64.72
2022-10-03T11:59:44.750Z,66.39
2022-10-03T12:02:16.434Z,66.67
2022-10-03T12:04:59.798Z,66.40
2022-10-03T12:08:22.905Z,66.96
2022-10-03T12:11:14.154Z,66.54
2022-10-03T12:14:10.925Z,65.97
2022-10-03T12:16:44.592Z,63.81
2022-10-03T12:19:30.936Z,64.09
2022-10-03T12:22:07.389Z,64.26
2022-10-03T12:24:37.711Z,63.66
2022-10-03T12:27:10.019Z,62.47
2022-10-03T12:29:45.919Z,62.11
2022-10-03T12:32:40.074Z,62.85
2022-10-03T12:35:44.214Z,63.36
2022-10-03T12:38:29.617Z,63.64
2022-10-03T12:41:05.393Z,63.70
2022-10-03T12:43:43.885Z,63.38
2022-10-03T12:46:45.757Z,63.33
2022-10-03T12:49:17.872Z,62.16
2022-10-03T12:52:01.089Z,61.69
2022-10-03T12:54:53.343Z,61.11
2022-10-03T12:57:47.846Z,61.33
2022-10-03T13:00:24.096Z,61.80
2022-10-03T13:02:58.220Z,61.72
2022-10-03T13:05:40.579Z,60.61
2022-10-03T13:08:37.428Z,61.63
2022-10-03T13:11:35.647Z,58.59
2022-10-03T13:14:28.220Z,55.94
2022-10-03T13:17:09.881Z,54.03
2022-10-03T13:19:55.330Z,56.13
2022-10-03T13:22:29.158Z,55.85
2022-10-03T13:25:02.184Z,55.50
2022-10-03T13:27:40.721Z,57.44
2022-10-03T13:30:16.653Z,60.21
2022-10-03T13:32:49.728Z,59.99
2022-10-03T13:35:58.222Z,60.43
2022-10-03T13:38:49.059Z,61.19
2022-10-03T13:41:42.234Z,59.93
2022-10-03T13:44:24.069Z,58.90
2022-10-03T13:46:57.160Z,58.43
2022-10-03T13:49:34.530Z,59.35
2022-10-03T13:52:16.446Z,61.41
2022-10-03T13:55:00.939Z,61.73
2022-10-03T13:57:35.657Z,61.19
2022-10-03T14:00:12.883Z,60.75
2022-10-03T14:03:21.441Z,61.08
2022-10-03T14:06:15.095Z,61.76
2022-10-03T14:09:16.573Z,62.27
2022-10-03T14:11:50.245Z,62.72
2022-10-03T14:14:41.906Z,61.97
2022-10-03T14:17:20.602Z,62.90
2022-10-03T14:20:06.359Z,62.47
2022-10-03T14:22:42.224Z,61.44
2022-10-03T14:25:22.516Z,62.37
2022-10-03T14:27:54.391Z,61.69
2022-10-03T14:31:05.114Z,59.94
2022-10-03T14:33:38.785Z,59.85
2022-10-03T14:36:29.386Z,60.68
2022-10-03T14:39:22.825Z,61.96
2022-10-03T14:41:52.507Z,62.90
2022-10-03T14:44:22.825Z,63.62
2022-10-03T14:47:10.305Z,63.31
2022-10-03T14:49:54.862Z,63.14
2022-10-03T14:52:42.807Z,63.57
2022-10-03T14:55:18.969Z,62.43
2022-10-03T14:58:11.434Z,61.06
2022-10-03T15:01:13.477Z,61.39
2022-10-03T15:04:07.848Z,62.55
2022-10-03T15:06:46.257Z,63.04
2022-10-03T15:09:25.174Z,64.08
2022-10-03T15:12:22.367Z,65.70
2022-10-03T15:15:01.589Z,66.72
2022-10-03T15:17:31.675Z,66.71
2022-10-03T15:20:01.402Z,66.76
2022-10-03T15:22:37.793Z,66.69
2022-10-03T15:25:18.512Z,66.47
2022-10-03T15:27:54.112Z,66.28
2022-10-03T15:30:33.805Z,66.52
2022-10-03T15:33:15.538Z,66.65
2022-10-03T15:35:48.337Z,66.66
2022-10-03T15:38:18.320Z,66.59
2022-10-03T15:41:13.485Z,66.66
2022-10-03T15:44:00.721Z,67.17
2022-10-03T15:46:43.387Z,66.65
2022-10-03T15:49:24.693Z,66.54
2022-10-03T15:51:53.100Z,66.37
2022-10-03T15:54:26.353Z,66.45
2022-10-03T15:57:03.382Z,66.23
2022-10-03T15:59:37.057Z,66.39
2022-10-03T16:02:19.132Z,66.67
2022-10-03T16:04:47.841Z,66.43
2022-10-03T16:07:46.110Z,66.22
2022-10-03T16:10:14.677Z,66.47
2022-10-03T16:12:56.452Z,66.63
2022-10-03T16:15:49.308Z,66.56
2022-10-03T16:18:18.875Z,66.68
2022-10-03T16:20:56.753Z,67.13
2022-10-03T16:23:37.743Z,67.41
2022-10-03T16:26:12.957Z,67.32
2022-10-03T16:28:50.653Z,67.95
2022-10-03T16:31:30.187Z,68.04
2022-10-03T16:34:06.765Z,68.08
2022-10-03T16:36:42.781Z,68.33
2022-10-03T16:39:25.088Z,68.29
2022-10-03T16:41:56.898Z,68.83
2022-10-03T16:44:42.418Z,69.19
2022-10-03T16:47:09.904Z,69.43
2022-10-03T16:50:13.592Z,69.71
2022-10-03T16:52:56.797Z,70.09
2022-10-03T16:55:39.060Z,70.15
2022-10-03T16:58:10.610Z,70.25
2022-10-03T17:01:26.240Z,70.85
2022-10-03T17:03:59.935Z,71.07
2022-10-03T17:06:33.189Z,71.01
2022-10-03T17:09:07.754Z,71.10
2022-10-03T17:11:38.374Z,71.37
2022-10-03T17:14:08.583Z,71.37
2022-10-03T17:16:47.583Z,71.60
2022-10-03T17:19:27.001Z,71.89
2022-10-03T17:22:00.419Z,71.65
2022-10-03T17:24:45.306Z,72.06
2022-10-03T17:27:36.659Z,72.33
2022-10-03T17:30:25.028Z,72.28
2022-10-03T17:33:03.653Z,72.20
2022-10-03T17:35:52.506Z,72.30
2022-10-03T17:38:49.467Z,72.83
2022-10-03T17:41:24.448Z,72.87
2022-10-03T17:44:12.101Z,73.27
2022-10-03T17:46:51.577Z,73.63
2022-10-03T17:49:23.773Z,73.60
2022-10-03T17:51:52.948Z,73.75
2022-10-03T17:54:29.653Z,73.83
2022-10-03T17:57:38.518Z,74.27
2022-10-03T18:00:18.994Z,74.14
2022-10-03T18:03:01.476Z,74.15
2022-10-03T18:05:38.997Z,74.17
2022-10-03T18:08:14.231Z,74.15
2022-10-03T18:10:49.236Z,74.43
2022-10-03T18:13:24.661Z,74.06
2022-10-03T18:16:21.099Z,74.38
2022-10-03T18:18:47.736Z,74.46
2022-10-03T18:21:17.515Z,74.49
2022-10-03T18:24:21.678Z,74.58
2022-10-03T18:27:11.651Z,74.63
2022-10-03T18:30:02.159Z,74.96
2022-10-03T18:32:32.554Z,74.79
2022-10-03T18:35:22.238Z,75.08
2022-10-03T18:38:08.211Z,75.44
2022-10-03T18:40:44.889Z,75.40
2022-10-03T18:43:49.279Z,75.86
2022-10-03T18:46:42.683Z,76.14
2022-10-03T18:49:36.021Z,76.09
2022-10-03T18:52:25.417Z,76.18
2022-10-03T18:55:03.745Z,76.54
2022-10-03T18:57:54.248Z,76.86
2022-10-03T19:00:26.572Z,77.07
2022-10-03T19:02:58.998Z,77.23
2022-10-03T19:05:33.288Z,77.25
2022-10-03T19:08:10.253Z,77.27
2022-10-03T19:10:50.855Z,77.54
2022-10-03T19:13:45.591Z,77.79
2022-10-03T19:16:30.794Z,78.05
2022-10-03T19:19:12.383Z,78.42
2022-10-03T19:21:41.712Z,78.70
2022-10-03T19:24:53.347Z,78.97
2022-10-03T19:27:38.962Z,79.14
2022-10-03T19:30:09.423Z,79.33
2022-10-03T19:32:53.929Z,79.30
2022-10-03T19:35:23.013Z,79.29
2022-10-03T19:37:57.394Z,79.66
2022-10-03T19:40:33.007Z,79.71
2022-10-03T19:43:32.081Z,79.83
2022-10-03T19:46:36.050Z,80.02
2022-10-03T19:49:05.721Z,80.18
2022-10-03T19:51:35.276Z,80.26
2022-10-03T19:54:11.433Z,80.31
2022-10-03T19:56:38.284Z,80.32
2022-10-03T19:59:12.622Z,80.48
2022-10-03T20:01:47.397Z,80.23
2022-10-03T20:04:18.977Z,80.39
2022-10-03T20:06:49.872Z,80.43
2022-10-03T20:10:00.994Z,80.42
2022-10-03T20:12:31.337Z,80.78
2022-10-03T20:15:05.476Z,80.63
2022-10-03T20:17:33.141Z,80.94
2022-10-03T20:20:07.839Z,81.16
2022-10-03T20:22:41.793Z,81.27
2022-10-03T20:25:26.469Z,81.28
2022-10-03T20:28:00.938Z,81.51
2022-10-03T20:30:39.961Z,81.28
2022-10-03T20:33:10.246Z,81.14
2022-10-03T20:35:45.997Z,81.06
2022-10-03T20:38:28.539Z,81.00
2022-10-03T20:41:15.540Z,80.90
2022-10-03T20:44:23.726Z,80.66
2022-10-03T20:46:57.768Z,80.47
2022-10-03T20:49:37.081Z,79.96
2022-10-03T20:52:07.403Z,79.93
2022-10-03T20:54:54.303Z,79.71
2022-10-03T20:57:26.974Z,79.47
2022-10-03T21:00:11.611Z,79.44
2022-10-03T21:02:38.160Z,79.33
2022-10-03T21:05:11.163Z,79.30
2022-10-03T21:07:43.562Z,79.15
2022-10-03T21:10:32.976Z,79.21
2022-10-03T21:13:08.892Z,79.34
2022-10-03T21:16:16.068Z,79.22
2022-10-03T21:18:47.614Z,79.56
2022-10-03T21:21:27.856Z,79.48
2022-10-03T21:24:12.975Z,79.94
2022-10-03T21:26:47.663Z,79.76
2022-10-03T21:29:15.806Z,79.96
2022-10-03T21:32:05.477Z,80.20
2022-10-03T21:34:45.234Z,80.59
2022-10-03T21:37:16.888Z,80.77
2022-10-03T21:39:56.652Z,80.65
2022-10-03T21:42:40.790Z,81.06
2022-10-03T21:45:22.218Z,81.56
2022-10-03T21:48:01.313Z,81.62
2022-10-03T21:50:31.794Z,81.82
2022-10-03T21:53:18.708Z,82.09
2022-10-03T21:55:53.031Z,82.12
2022-10-03T21:58:38.961Z,82.55
2022-10-03T22:01:29.869Z,82.66
2022-10-03T22:04:11.342Z,82.67
2022-10-03T22:07:35.903Z,82.98
2022-10-03T22:10:03.676Z,83.00
2022-10-03T22:12:40.440Z,83.36
2022-10-03T22:15:19.720Z,83.30
2022-10-03T22:17:57.840Z,83.62
2022-10-03T22:20:32.944Z,83.81
2022-10-03T22:23:14.014Z,83.91
2022-10-03T22:26:02.672Z,84.14
2022-10-03T22:28:52.249Z,83.78
2022-10-03T22:31:51.412Z,84.11
2022-10-03T22:34:42.918Z,84.52
2022-10-03T22:37:10.007Z,84.55
2022-10-03T22:39:37.083Z,84.63
2022-10-03T22:42:04.642Z,84.71
2022-10-03T22:44:35.038Z,84.67
2022-10-03T22:47:11.099Z,84.55
2022-10-03T22:49:45.110Z,84.65
2022-10-03T22:52:21.305Z,84.56
2022-10-03T22:54:49.697Z,84.84
2022-10-03T22:57:17.083Z,84.46
2022-10-03T22:59:51.929Z,84.56
2022-10-03T23:02:25.589Z,84.69
2022-10-03T23:04:57.503Z,84.94
2022-10-03T23:07:56.200Z,84.98
2022-10-03T23:10:25.435Z,85.37
2022-10-03T23:13:04.398Z,85.51
2022-10-03T23:15:34.263Z,85.52
2022-10-03T23:18:39.057Z,85.66
2022-10-03T23:21:08.775Z,85.69
2022-10-03T23:24:20.474Z,85.83
2022-10-03T23:27:24.579Z,86.28
2022-10-03T23:30:12.962Z,86.16
2022-10-03T23:32:48.556Z,86.44
2022-10-03T23:35:17.769Z,86.40
2022-10-03T23:37:48.926Z,86.30
2022-10-03T23:40:20.608Z,86.61
2022-10-03T23:42:59.506Z,86.99
2022-10-03T23:45:29.648Z,87.17
2022-10-03T23:48:07.401Z,87.20
2022-10-03T23:50:42.862Z,87.63
2022-10-03T23:53:32.171Z,87.12
2022-10-03T23:56:02.545Z,87.29
2022-10-03T23:58:32.515Z,87.47
